Terminal Aerodrome Forecast
Issued by NWS King Salmon, AK

Home | Current Version | Previous Version | Text Only | Print | Product List | Glossary On
Versions: 1 2 3 4 5 6 7 8 9 10 11 12 13 14 15 16 17 18
000
FTAK31 PANC 251740
TAFAKN
TAF
PAKN 251740Z 2518/2618 36005KT P6SM VCFG FEW015
     FM252000 VRB03KT P6SM SCT015 BKN200
     FM260500 16007KT P6SM BKN050
     FM261500 15005KT P6SM SCT010 BKN035=

USA.gov is the U.S. government's official web portal to all federal, state and local government web resources and services.